sensor_id;sensor_type;location;lat;lon;timestamp;temperature;humidity
54642;DHT22;40536;53.194;5.728;2022-12-11T00:02:02;0.60;99.90
54642;DHT22;40536;53.194;5.728;2022-12-11T00:04:29;0.70;99.90
54642;DHT22;40536;53.194;5.728;2022-12-11T00:06:55;0.70;99.90
54642;DHT22;40536;53.194;5.728;2022-12-11T00:09:21;0.70;99.90
54642;DHT22;40536;53.194;5.728;2022-12-11T00:11:47;0.70;99.90
54642;DHT22;40536;53.194;5.728;2022-12-11T00:14:14;0.80;99.90
54642;DHT22;40536;53.194;5.728;2022-12-11T00:16:40;0.70;99.90
54642;DHT22;40536;53.194;5.728;2022-12-11T00:19:06;0.80;99.90
54642;DHT22;40536;53.194;5.728;2022-12-11T00:21:32;0.80;99.90
54642;DHT22;40536;53.194;5.728;2022-12-11T00:23:58;0.80;99.90
54642;DHT22;40536;53.194;5.728;2022-12-11T00:26:24;0.80;99.90
54642;DHT22;40536;53.194;5.728;2022-12-11T00:28:53;0.80;99.90
54642;DHT22;40536;53.194;5.728;2022-12-11T00:31:20;0.80;99.90
54642;DHT22;40536;53.194;5.728;2022-12-11T00:33:46;0.80;99.90
54642;DHT22;40536;53.194;5.728;2022-12-11T00:36:21;0.90;99.90
54642;DHT22;40536;53.194;5.728;2022-12-11T00:38:47;0.90;99.90
54642;DHT22;40536;53.194;5.728;2022-12-11T00:41:14;0.90;99.90
54642;DHT22;40536;53.194;5.728;2022-12-11T00:43:40;2.40;99.90
54642;DHT22;40536;53.194;5.728;2022-12-11T00:46:06;0.90;99.90
54642;DHT22;40536;53.194;5.728;2022-12-11T00:48:32;0.90;99.90
54642;DHT22;40536;53.194;5.728;2022-12-11T00:50:57;0.90;99.90
54642;DHT22;40536;53.194;5.728;2022-12-11T00:55:49;0.90;99.90
54642;DHT22;40536;53.194;5.728;2022-12-11T00:58:15;0.90;99.90
54642;DHT22;40536;53.194;5.728;2022-12-11T01:00:41;0.90;99.90
54642;DHT22;40536;53.194;5.728;2022-12-11T01:03:09;0.90;99.90
54642;DHT22;40536;53.194;5.728;2022-12-11T01:05:35;0.90;99.90
54642;DHT22;40536;53.194;5.728;2022-12-11T01:08:01;0.90;99.90
54642;DHT22;40536;53.194;5.728;2022-12-11T01:10:27;2.30;99.90
54642;DHT22;40536;53.194;5.728;2022-12-11T01:15:20;1.00;99.90
54642;DHT22;40536;53.194;5.728;2022-12-11T01:17:48;1.00;99.90
54642;DHT22;40536;53.194;5.728;2022-12-11T01:20:14;1.00;99.90
54642;DHT22;40536;53.194;5.728;2022-12-11T01:22:40;1.00;99.90
54642;DHT22;40536;53.194;5.728;2022-12-11T01:25:06;1.00;99.90
54642;DHT22;40536;53.194;5.728;2022-12-11T01:27:32;1.00;99.90
54642;DHT22;40536;53.194;5.728;2022-12-11T01:29:58;1.00;99.90
54642;DHT22;40536;53.194;5.728;2022-12-11T01:32:23;1.00;99.90
54642;DHT22;40536;53.194;5.728;2022-12-11T01:34:49;2.80;99.90
54642;DHT22;40536;53.194;5.728;2022-12-11T01:37:14;1.00;99.90
54642;DHT22;40536;53.194;5.728;2022-12-11T01:39:40;2.50;99.90
54642;DHT22;40536;53.194;5.728;2022-12-11T01:42:06;1.10;99.90
54642;DHT22;40536;53.194;5.728;2022-12-11T01:47:00;1.00;99.90
54642;DHT22;40536;53.194;5.728;2022-12-11T01:49:26;1.10;99.90
54642;DHT22;40536;53.194;5.728;2022-12-11T01:52:00;1.10;99.90
54642;DHT22;40536;53.194;5.728;2022-12-11T01:54:28;1.10;99.90
54642;DHT22;40536;53.194;5.728;2022-12-11T01:56:58;1.10;99.90
54642;DHT22;40536;53.194;5.728;2022-12-11T01:59:28;1.10;99.90
54642;DHT22;40536;53.194;5.728;2022-12-11T02:02:02;1.10;99.90
54642;DHT22;40536;53.194;5.728;2022-12-11T02:04:30;1.10;99.90
54642;DHT22;40536;53.194;5.728;2022-12-11T02:06:56;1.10;99.90
54642;DHT22;40536;53.194;5.728;2022-12-11T02:09:26;1.10;99.90
54642;DHT22;40536;53.194;5.728;2022-12-11T02:12:02;1.10;99.90
54642;DHT22;40536;53.194;5.728;2022-12-11T02:14:40;1.20;99.90
54642;DHT22;40536;53.194;5.728;2022-12-11T02:17:40;1.20;99.90
54642;DHT22;40536;53.194;5.728;2022-12-11T02:20:22;1.20;99.90
54642;DHT22;40536;53.194;5.728;2022-12-11T02:28:34;1.20;99.90
54642;DHT22;40536;53.194;5.728;2022-12-11T02:31:16;1.20;99.90
54642;DHT22;40536;53.194;5.728;2022-12-11T02:33:49;1.20;99.90
54642;DHT22;40536;53.194;5.728;2022-12-11T02:36:18;1.20;99.90
54642;DHT22;40536;53.194;5.728;2022-12-11T02:38:48;1.20;99.90
54642;DHT22;40536;53.194;5.728;2022-12-11T02:41:18;1.20;99.90
54642;DHT22;40536;53.194;5.728;2022-12-11T02:43:46;1.30;99.90
54642;DHT22;40536;53.194;5.728;2022-12-11T02:46:13;1.20;99.90
54642;DHT22;40536;53.194;5.728;2022-12-11T02:48:40;1.20;99.90
54642;DHT22;40536;53.194;5.728;2022-12-11T02:51:08;1.30;99.90
54642;DHT22;40536;53.194;5.728;2022-12-11T02:53:37;1.30;99.90
54642;DHT22;40536;53.194;5.728;2022-12-11T02:56:15;1.30;99.90
54642;DHT22;40536;53.194;5.728;2022-12-11T02:58:47;3.40;99.90
54642;DHT22;40536;53.194;5.728;2022-12-11T03:01:13;1.30;99.90
54642;DHT22;40536;53.194;5.728;2022-12-11T03:03:39;1.30;99.90
54642;DHT22;40536;53.194;5.728;2022-12-11T03:06:05;1.30;99.90
54642;DHT22;40536;53.194;5.728;2022-12-11T03:08:31;1.40;99.90
54642;DHT22;40536;53.194;5.728;2022-12-11T03:10:56;1.40;99.90
54642;DHT22;40536;53.194;5.728;2022-12-11T03:13:22;1.40;99.90
54642;DHT22;40536;53.194;5.728;2022-12-11T03:16:03;1.40;99.90
54642;DHT22;40536;53.194;5.728;2022-12-11T03:18:48;1.40;99.90
54642;DHT22;40536;53.194;5.728;2022-12-11T03:21:24;1.40;99.90
54642;DHT22;40536;53.194;5.728;2022-12-11T03:24:19;1.40;99.90
54642;DHT22;40536;53.194;5.728;2022-12-11T03:26:55;1.40;99.90
54642;DHT22;40536;53.194;5.728;2022-12-11T03:29:30;1.40;99.90
54642;DHT22;40536;53.194;5.728;2022-12-11T03:32:08;1.30;99.90
54642;DHT22;40536;53.194;5.728;2022-12-11T03:34:42;1.30;99.90
54642;DHT22;40536;53.194;5.728;2022-12-11T03:37:10;1.30;99.90
54642;DHT22;40536;53.194;5.728;2022-12-11T03:39:43;1.60;99.90
54642;DHT22;40536;53.194;5.728;2022-12-11T03:42:12;2.90;99.90
54642;DHT22;40536;53.194;5.728;2022-12-11T03:44:42;1.30;99.90
54642;DHT22;40536;53.194;5.728;2022-12-11T03:47:13;1.30;99.90
54642;DHT22;40536;53.194;5.728;2022-12-11T03:49:41;1.30;99.90
54642;DHT22;40536;53.194;5.728;2022-12-11T03:52:10;1.30;99.90
54642;DHT22;40536;53.194;5.728;2022-12-11T03:54:38;1.30;99.90
54642;DHT22;40536;53.194;5.728;2022-12-11T03:57:04;1.30;99.90
54642;DHT22;40536;53.194;5.728;2022-12-11T03:59:32;1.20;99.90
54642;DHT22;40536;53.194;5.728;2022-12-11T04:01:58;1.20;99.90
54642;DHT22;40536;53.194;5.728;2022-12-11T04:04:23;1.30;99.90
54642;DHT22;40536;53.194;5.728;2022-12-11T04:06:49;1.30;99.90
54642;DHT22;40536;53.194;5.728;2022-12-11T04:09:15;1.30;99.90
54642;DHT22;40536;53.194;5.728;2022-12-11T04:11:40;1.30;99.90
54642;DHT22;40536;53.194;5.728;2022-12-11T04:14:13;1.30;99.90
54642;DHT22;40536;53.194;5.728;2022-12-11T04:16:59;1.30;99.90
54642;DHT22;40536;53.194;5.728;2022-12-11T04:19:25;1.30;99.90
54642;DHT22;40536;53.194;5.728;2022-12-11T04:22:14;2.60;99.90
54642;DHT22;40536;53.194;5.728;2022-12-11T04:25:05;1.30;99.90
54642;DHT22;40536;53.194;5.728;2022-12-11T04:27:31;1.30;99.90
54642;DHT22;40536;53.194;5.728;2022-12-11T04:30:19;1.30;99.90
54642;DHT22;40536;53.194;5.728;2022-12-11T04:32:45;1.30;99.90
54642;DHT22;40536;53.194;5.728;2022-12-11T04:35:11;1.30;99.90
54642;DHT22;40536;53.194;5.728;2022-12-11T04:37:37;1.30;99.90
54642;DHT22;40536;53.194;5.728;2022-12-11T04:40:05;1.20;99.90
54642;DHT22;40536;53.194;5.728;2022-12-11T04:42:31;1.30;99.90
54642;DHT22;40536;53.194;5.728;2022-12-11T04:44:57;1.30;99.90
54642;DHT22;40536;53.194;5.728;2022-12-11T04:47:23;1.30;99.90
54642;DHT22;40536;53.194;5.728;2022-12-11T04:49:48;1.30;99.90
54642;DHT22;40536;53.194;5.728;2022-12-11T04:52:14;1.30;99.90
54642;DHT22;40536;53.194;5.728;2022-12-11T04:54:39;1.30;99.90
54642;DHT22;40536;53.194;5.728;2022-12-11T04:57:05;1.20;99.90
54642;DHT22;40536;53.194;5.728;2022-12-11T04:59:31;1.30;99.90
54642;DHT22;40536;53.194;5.728;2022-12-11T05:01:57;1.30;99.90
54642;DHT22;40536;53.194;5.728;2022-12-11T05:04:23;3.20;99.90
54642;DHT22;40536;53.194;5.728;2022-12-11T05:06:49;1.30;99.90
54642;DHT22;40536;53.194;5.728;2022-12-11T05:09:15;1.30;99.90
54642;DHT22;40536;53.194;5.728;2022-12-11T05:11:40;1.30;99.90
54642;DHT22;40536;53.194;5.728;2022-12-11T05:14:06;1.30;99.90
54642;DHT22;40536;53.194;5.728;2022-12-11T05:16:32;1.30;99.90
54642;DHT22;40536;53.194;5.728;2022-12-11T05:18:58;1.30;99.90
54642;DHT22;40536;53.194;5.728;2022-12-11T05:21:23;1.30;99.90
54642;DHT22;40536;53.194;5.728;2022-12-11T05:23:49;1.20;99.90
54642;DHT22;40536;53.194;5.728;2022-12-11T05:26:19;1.20;99.90
54642;DHT22;40536;53.194;5.728;2022-12-11T05:28:49;1.30;99.90
54642;DHT22;40536;53.194;5.728;2022-12-11T05:31:20;3.00;99.90
54642;DHT22;40536;53.194;5.728;2022-12-11T05:33:47;1.20;99.90
54642;DHT22;40536;53.194;5.728;2022-12-11T05:36:17;2.10;99.90
54642;DHT22;40536;53.194;5.728;2022-12-11T05:38:43;1.20;99.90
54642;DHT22;40536;53.194;5.728;2022-12-11T05:41:13;1.20;99.90
54642;DHT22;40536;53.194;5.728;2022-12-11T05:43:39;1.20;99.90
54642;DHT22;40536;53.194;5.728;2022-12-11T05:46:13;1.20;99.90
54642;DHT22;40536;53.194;5.728;2022-12-11T05:48:40;0.60;99.90
54642;DHT22;40536;53.194;5.728;2022-12-11T05:51:06;1.20;99.90
54642;DHT22;40536;53.194;5.728;2022-12-11T05:53:33;1.20;99.90
54642;DHT22;40536;53.194;5.728;2022-12-11T05:56:15;1.20;99.90
54642;DHT22;40536;53.194;5.728;2022-12-11T05:58:42;1.30;99.90
54642;DHT22;40536;53.194;5.728;2022-12-11T06:01:19;1.30;99.90
54642;DHT22;40536;53.194;5.728;2022-12-11T06:03:45;1.30;99.90
54642;DHT22;40536;53.194;5.728;2022-12-11T06:06:12;1.30;99.90
54642;DHT22;40536;53.194;5.728;2022-12-11T06:08:37;1.20;99.90
54642;DHT22;40536;53.194;5.728;2022-12-11T06:11:04;1.30;99.90
54642;DHT22;40536;53.194;5.728;2022-12-11T06:13:30;1.30;99.90
54642;DHT22;40536;53.194;5.728;2022-12-11T06:15:59;1.30;99.90
54642;DHT22;40536;53.194;5.728;2022-12-11T06:18:25;1.30;99.90
54642;DHT22;40536;53.194;5.728;2022-12-11T06:20:51;1.20;99.90
54642;DHT22;40536;53.194;5.728;2022-12-11T06:23:17;1.20;99.90
54642;DHT22;40536;53.194;5.728;2022-12-11T06:25:42;1.20;99.90
54642;DHT22;40536;53.194;5.728;2022-12-11T06:28:08;1.20;99.90
54642;DHT22;40536;53.194;5.728;2022-12-11T06:30:34;1.20;99.90
54642;DHT22;40536;53.194;5.728;2022-12-11T06:32:59;1.20;99.90
54642;DHT22;40536;53.194;5.728;2022-12-11T06:35:25;1.20;99.90
54642;DHT22;40536;53.194;5.728;2022-12-11T06:37:51;1.50;99.90
54642;DHT22;40536;53.194;5.728;2022-12-11T06:40:17;1.20;99.90
54642;DHT22;40536;53.194;5.728;2022-12-11T06:42:42;1.30;99.90
54642;DHT22;40536;53.194;5.728;2022-12-11T06:45:08;1.20;99.90
54642;DHT22;40536;53.194;5.728;2022-12-11T06:47:34;1.30;99.90
54642;DHT22;40536;53.194;5.728;2022-12-11T06:50:00;1.20;99.90
54642;DHT22;40536;53.194;5.728;2022-12-11T06:52:27;1.30;99.90
54642;DHT22;40536;53.194;5.728;2022-12-11T06:54:52;1.20;99.90
54642;DHT22;40536;53.194;5.728;2022-12-11T06:57:18;1.20;99.90
54642;DHT22;40536;53.194;5.728;2022-12-11T06:59:44;1.20;99.90
54642;DHT22;40536;53.194;5.728;2022-12-11T07:02:15;1.20;99.90
54642;DHT22;40536;53.194;5.728;2022-12-11T07:04:41;1.20;99.90
54642;DHT22;40536;53.194;5.728;2022-12-11T07:07:08;1.30;99.90
54642;DHT22;40536;53.194;5.728;2022-12-11T07:09:34;1.30;99.90
54642;DHT22;40536;53.194;5.728;2022-12-11T07:12:01;1.20;99.90
54642;DHT22;40536;53.194;5.728;2022-12-11T07:14:28;3.10;99.90
54642;DHT22;40536;53.194;5.728;2022-12-11T07:16:55;1.30;99.90
54642;DHT22;40536;53.194;5.728;2022-12-11T07:19:20;1.20;99.90
54642;DHT22;40536;53.194;5.728;2022-12-11T07:21:46;1.30;99.90
54642;DHT22;40536;53.194;5.728;2022-12-11T07:24:12;1.20;99.90
54642;DHT22;40536;53.194;5.728;2022-12-11T07:26:37;1.30;99.90
54642;DHT22;40536;53.194;5.728;2022-12-11T07:29:03;1.20;99.90
54642;DHT22;40536;53.194;5.728;2022-12-11T07:31:29;1.30;99.90
54642;DHT22;40536;53.194;5.728;2022-12-11T07:34:00;1.60;99.90
54642;DHT22;40536;53.194;5.728;2022-12-11T07:36:27;1.30;99.90
54642;DHT22;40536;53.194;5.728;2022-12-11T07:38:53;1.20;99.90
54642;DHT22;40536;53.194;5.728;2022-12-11T07:41:19;1.30;99.90
54642;DHT22;40536;53.194;5.728;2022-12-11T07:43:45;1.30;99.90
54642;DHT22;40536;53.194;5.728;2022-12-11T07:46:16;1.30;99.90
54642;DHT22;40536;53.194;5.728;2022-12-11T07:48:44;1.30;99.90
54642;DHT22;40536;53.194;5.728;2022-12-11T07:53:37;1.20;99.90
54642;DHT22;40536;53.194;5.728;2022-12-11T07:56:03;1.20;99.90
54642;DHT22;40536;53.194;5.728;2022-12-11T07:58:29;1.30;99.90
54642;DHT22;40536;53.194;5.728;2022-12-11T08:00:54;1.30;99.90
54642;DHT22;40536;53.194;5.728;2022-12-11T08:03:20;1.30;99.90
54642;DHT22;40536;53.194;5.728;2022-12-11T08:05:47;1.30;99.90
54642;DHT22;40536;53.194;5.728;2022-12-11T08:08:14;1.30;99.90
54642;DHT22;40536;53.194;5.728;2022-12-11T08:10:39;1.30;99.90
54642;DHT22;40536;53.194;5.728;2022-12-11T08:13:05;1.30;99.90
54642;DHT22;40536;53.194;5.728;2022-12-11T08:15:31;1.30;99.90
54642;DHT22;40536;53.194;5.728;2022-12-11T08:17:56;1.30;99.90
54642;DHT22;40536;53.194;5.728;2022-12-11T08:20:22;1.30;99.90
54642;DHT22;40536;53.194;5.728;2022-12-11T08:22:48;1.30;99.90
54642;DHT22;40536;53.194;5.728;2022-12-11T08:25:13;1.30;99.90
54642;DHT22;40536;53.194;5.728;2022-12-11T08:27:39;1.40;99.90
54642;DHT22;40536;53.194;5.728;2022-12-11T08:30:05;1.40;99.90
54642;DHT22;40536;53.194;5.728;2022-12-11T08:32:31;1.40;99.90
54642;DHT22;40536;53.194;5.728;2022-12-11T08:34:56;3.20;99.90
54642;DHT22;40536;53.194;5.728;2022-12-11T08:37:22;1.40;99.90
54642;DHT22;40536;53.194;5.728;2022-12-11T08:39:48;1.40;99.90
54642;DHT22;40536;53.194;5.728;2022-12-11T08:42:14;1.50;99.90
54642;DHT22;40536;53.194;5.728;2022-12-11T08:44:40;3.00;99.90
54642;DHT22;40536;53.194;5.728;2022-12-11T08:47:06;1.40;99.90
54642;DHT22;40536;53.194;5.728;2022-12-11T08:49:34;1.50;99.90
54642;DHT22;40536;53.194;5.728;2022-12-11T08:52:01;1.50;99.90
54642;DHT22;40536;53.194;5.728;2022-12-11T08:54:27;1.50;99.90
54642;DHT22;40536;53.194;5.728;2022-12-11T08:56:52;1.60;99.90
54642;DHT22;40536;53.194;5.728;2022-12-11T08:59:18;1.60;99.90
54642;DHT22;40536;53.194;5.728;2022-12-11T09:01:44;1.70;99.90
54642;DHT22;40536;53.194;5.728;2022-12-11T09:04:09;2.80;99.90
54642;DHT22;40536;53.194;5.728;2022-12-11T09:06:35;1.70;99.90
54642;DHT22;40536;53.194;5.728;2022-12-11T09:09:02;1.80;99.90
54642;DHT22;40536;53.194;5.728;2022-12-11T09:11:30;1.80;99.90
54642;DHT22;40536;53.194;5.728;2022-12-11T09:16:55;1.80;99.90
54642;DHT22;40536;53.194;5.728;2022-12-11T09:19:21;1.80;99.90
54642;DHT22;40536;53.194;5.728;2022-12-11T09:21:47;3.30;99.90
54642;DHT22;40536;53.194;5.728;2022-12-11T09:24:13;1.80;99.90
54642;DHT22;40536;53.194;5.728;2022-12-11T09:26:39;2.80;99.90
54642;DHT22;40536;53.194;5.728;2022-12-11T09:29:06;2.10;99.90
54642;DHT22;40536;53.194;5.728;2022-12-11T09:31:34;2.00;99.90
54642;DHT22;40536;53.194;5.728;2022-12-11T09:34:05;1.60;99.90
54642;DHT22;40536;53.194;5.728;2022-12-11T09:36:32;3.90;99.90
54642;DHT22;40536;53.194;5.728;2022-12-11T09:39:00;3.50;99.90
54642;DHT22;40536;53.194;5.728;2022-12-11T09:41:39;3.90;99.90
54642;DHT22;40536;53.194;5.728;2022-12-11T09:46:35;2.20;99.90
54642;DHT22;40536;53.194;5.728;2022-12-11T09:49:03;4.00;99.90
54642;DHT22;40536;53.194;5.728;2022-12-11T09:51:49;2.70;99.90
54642;DHT22;40536;53.194;5.728;2022-12-11T09:54:16;2.30;99.90
54642;DHT22;40536;53.194;5.728;2022-12-11T09:56:50;2.30;99.90
54642;DHT22;40536;53.194;5.728;2022-12-11T09:59:50;2.40;99.90
54642;DHT22;40536;53.194;5.728;2022-12-11T10:13:57;3.70;99.90
54642;DHT22;40536;53.194;5.728;2022-12-11T10:16:35;2.40;99.90
54642;DHT22;40536;53.194;5.728;2022-12-11T10:19:04;2.40;99.90
54642;DHT22;40536;53.194;5.728;2022-12-11T10:21:39;4.10;99.90
54642;DHT22;40536;53.194;5.728;2022-12-11T10:24:19;4.40;99.90
54642;DHT22;40536;53.194;5.728;2022-12-11T10:26:47;2.40;99.90
54642;DHT22;40536;53.194;5.728;2022-12-11T10:29:14;2.20;99.90
54642;DHT22;40536;53.194;5.728;2022-12-11T10:31:55;4.30;99.90
54642;DHT22;40536;53.194;5.728;2022-12-11T10:34:35;2.50;99.90
54642;DHT22;40536;53.194;5.728;2022-12-11T10:37:02;2.60;99.90
54642;DHT22;40536;53.194;5.728;2022-12-11T10:39:28;2.30;99.90
54642;DHT22;40536;53.194;5.728;2022-12-11T10:41:55;3.20;99.90
54642;DHT22;40536;53.194;5.728;2022-12-11T10:44:29;2.40;99.90
54642;DHT22;40536;53.194;5.728;2022-12-11T10:47:16;2.70;99.90
54642;DHT22;40536;53.194;5.728;2022-12-11T10:49:58;4.10;99.90
54642;DHT22;40536;53.194;5.728;2022-12-11T10:52:26;2.80;99.90
54642;DHT22;40536;53.194;5.728;2022-12-11T10:55:06;4.50;99.90
54642;DHT22;40536;53.194;5.728;2022-12-11T10:57:34;2.70;99.90
54642;DHT22;40536;53.194;5.728;2022-12-11T11:00:03;2.80;99.90
54642;DHT22;40536;53.194;5.728;2022-12-11T11:02:34;2.50;99.90
54642;DHT22;40536;53.194;5.728;2022-12-11T11:05:11;4.20;99.90
54642;DHT22;40536;53.194;5.728;2022-12-11T11:07:37;2.10;99.90
54642;DHT22;40536;53.194;5.728;2022-12-11T11:12:40;2.70;99.90
54642;DHT22;40536;53.194;5.728;2022-12-11T11:15:19;2.60;99.90
54642;DHT22;40536;53.194;5.728;2022-12-11T11:17:52;2.60;99.90
54642;DHT22;40536;53.194;5.728;2022-12-11T11:20:27;2.60;99.90
54642;DHT22;40536;53.194;5.728;2022-12-11T11:22:56;4.00;99.90
54642;DHT22;40536;53.194;5.728;2022-12-11T11:25:24;2.70;99.90
54642;DHT22;40536;53.194;5.728;2022-12-11T11:31:09;2.80;99.90
54642;DHT22;40536;53.194;5.728;2022-12-11T11:33:36;2.90;99.90
54642;DHT22;40536;53.194;5.728;2022-12-11T11:36:21;2.80;99.90
54642;DHT22;40536;53.194;5.728;2022-12-11T11:39:12;2.80;99.90
54642;DHT22;40536;53.194;5.728;2022-12-11T11:41:52;4.10;99.90
54642;DHT22;40536;53.194;5.728;2022-12-11T11:44:29;2.70;99.90
54642;DHT22;40536;53.194;5.728;2022-12-11T11:47:13;2.80;99.90
54642;DHT22;40536;53.194;5.728;2022-12-11T11:50:13;2.80;99.90
54642;DHT22;40536;53.194;5.728;2022-12-11T11:58:15;2.80;99.90
54642;DHT22;40536;53.194;5.728;2022-12-11T12:00:43;2.80;99.90
54642;DHT22;40536;53.194;5.728;2022-12-11T12:03:12;2.80;99.90
54642;DHT22;40536;53.194;5.728;2022-12-11T12:10:51;3.00;99.90
54642;DHT22;40536;53.194;5.728;2022-12-11T12:16:54;3.00;99.90
54642;DHT22;40536;53.194;5.728;2022-12-11T12:19:36;3.10;99.90
54642;DHT22;40536;53.194;5.728;2022-12-11T12:31:24;3.20;99.90
54642;DHT22;40536;53.194;5.728;2022-12-11T12:33:53;3.20;99.90
54642;DHT22;40536;53.194;5.728;2022-12-11T12:36:30;3.20;99.90
54642;DHT22;40536;53.194;5.728;2022-12-11T12:44:33;3.10;99.90
54642;DHT22;40536;53.194;5.728;2022-12-11T12:47:13;4.80;99.90
54642;DHT22;40536;53.194;5.728;2022-12-11T12:49:48;3.30;99.90
54642;DHT22;40536;53.194;5.728;2022-12-11T12:52:39;4.70;99.90
54642;DHT22;40536;53.194;5.728;2022-12-11T12:55:18;4.70;99.90
54642;DHT22;40536;53.194;5.728;2022-12-11T12:57:54;3.20;99.90
54642;DHT22;40536;53.194;5.728;2022-12-11T13:00:38;3.20;99.90
54642;DHT22;40536;53.194;5.728;2022-12-11T13:03:29;3.20;99.90
54642;DHT22;40536;53.194;5.728;2022-12-11T13:06:07;4.40;99.90
54642;DHT22;40536;53.194;5.728;2022-12-11T13:11:07;3.20;99.90
54642;DHT22;40536;53.194;5.728;2022-12-11T13:13:40;4.90;99.90
54642;DHT22;40536;53.194;5.728;2022-12-11T13:18:45;4.00;99.90
54642;DHT22;40536;53.194;5.728;2022-12-11T13:24:23;3.00;99.90
54642;DHT22;40536;53.194;5.728;2022-12-11T13:26:50;4.30;99.90
54642;DHT22;40536;53.194;5.728;2022-12-11T13:29:31;2.90;99.90
54642;DHT22;40536;53.194;5.728;2022-12-11T13:32:41;3.90;99.90
54642;DHT22;40536;53.194;5.728;2022-12-11T13:35:13;2.80;99.90
54642;DHT22;40536;53.194;5.728;2022-12-11T13:37:41;2.70;99.90
54642;DHT22;40536;53.194;5.728;2022-12-11T13:40:20;4.00;99.90
54642;DHT22;40536;53.194;5.728;2022-12-11T13:45:42;2.60;99.90
54642;DHT22;40536;53.194;5.728;2022-12-11T13:48:34;2.40;99.90
54642;DHT22;40536;53.194;5.728;2022-12-11T13:51:01;2.10;99.90
54642;DHT22;40536;53.194;5.728;2022-12-11T13:53:28;2.10;99.90
54642;DHT22;40536;53.194;5.728;2022-12-11T13:56:14;2.00;99.90
54642;DHT22;40536;53.194;5.728;2022-12-11T13:58:40;2.10;99.90
54642;DHT22;40536;53.194;5.728;2022-12-11T14:01:20;3.80;99.90
54642;DHT22;40536;53.194;5.728;2022-12-11T14:04:06;2.90;99.90
54642;DHT22;40536;53.194;5.728;2022-12-11T14:06:35;1.90;99.90
54642;DHT22;40536;53.194;5.728;2022-12-11T14:09:03;1.90;99.90
54642;DHT22;40536;53.194;5.728;2022-12-11T14:11:38;3.90;99.90
54642;DHT22;40536;53.194;5.728;2022-12-11T14:14:13;2.00;99.90
54642;DHT22;40536;53.194;5.728;2022-12-11T14:16:40;2.00;99.90
54642;DHT22;40536;53.194;5.728;2022-12-11T14:19:07;3.00;99.90
54642;DHT22;40536;53.194;5.728;2022-12-11T14:21:34;3.60;99.90
54642;DHT22;40536;53.194;5.728;2022-12-11T14:24:01;3.80;99.90
54642;DHT22;40536;53.194;5.728;2022-12-11T14:26:33;3.70;99.90
54642;DHT22;40536;53.194;5.728;2022-12-11T14:28:59;3.00;99.90
54642;DHT22;40536;53.194;5.728;2022-12-11T14:31:34;1.90;99.90
54642;DHT22;40536;53.194;5.728;2022-12-11T14:34:13;1.90;99.90
54642;DHT22;40536;53.194;5.728;2022-12-11T14:36:41;1.90;99.90
54642;DHT22;40536;53.194;5.728;2022-12-11T14:39:15;1.80;99.90
54642;DHT22;40536;53.194;5.728;2022-12-11T14:41:47;1.80;99.90
54642;DHT22;40536;53.194;5.728;2022-12-11T14:44:15;1.60;99.90
54642;DHT22;40536;53.194;5.728;2022-12-11T14:46:47;1.70;99.90
54642;DHT22;40536;53.194;5.728;2022-12-11T14:49:25;1.90;99.90
54642;DHT22;40536;53.194;5.728;2022-12-11T14:51:54;1.70;99.90
54642;DHT22;40536;53.194;5.728;2022-12-11T14:54:41;1.60;99.90
54642;DHT22;40536;53.194;5.728;2022-12-11T14:57:14;3.30;99.90
54642;DHT22;40536;53.194;5.728;2022-12-11T14:59:45;1.80;99.90
54642;DHT22;40536;53.194;5.728;2022-12-11T15:02:25;1.60;99.90
54642;DHT22;40536;53.194;5.728;2022-12-11T15:05:18;1.70;99.90
54642;DHT22;40536;53.194;5.728;2022-12-11T15:10:35;1.60;99.90
54642;DHT22;40536;53.194;5.728;2022-12-11T15:13:03;2.70;99.90
54642;DHT22;40536;53.194;5.728;2022-12-11T15:15:36;1.50;99.90
54642;DHT22;40536;53.194;5.728;2022-12-11T15:18:06;1.40;99.90
54642;DHT22;40536;53.194;5.728;2022-12-11T15:20:38;1.30;99.90
54642;DHT22;40536;53.194;5.728;2022-12-11T15:23:06;3.00;99.90
54642;DHT22;40536;53.194;5.728;2022-12-11T15:25:32;1.10;99.90
54642;DHT22;40536;53.194;5.728;2022-12-11T15:28:00;2.60;99.90
54642;DHT22;40536;53.194;5.728;2022-12-11T15:30:28;1.20;99.90
54642;DHT22;40536;53.194;5.728;2022-12-11T15:33:24;1.20;99.90
54642;DHT22;40536;53.194;5.728;2022-12-11T15:36:04;2.40;99.90
54642;DHT22;40536;53.194;5.728;2022-12-11T15:38:38;1.90;99.90
54642;DHT22;40536;53.194;5.728;2022-12-11T15:41:13;2.50;99.90
54642;DHT22;40536;53.194;5.728;2022-12-11T15:43:41;1.00;99.90
54642;DHT22;40536;53.194;5.728;2022-12-11T15:46:08;1.00;99.90
54642;DHT22;40536;53.194;5.728;2022-12-11T15:48:33;1.00;99.90
54642;DHT22;40536;53.194;5.728;2022-12-11T15:50:59;0.60;99.90
54642;DHT22;40536;53.194;5.728;2022-12-11T15:53:25;1.00;99.90
54642;DHT22;40536;53.194;5.728;2022-12-11T15:55:51;1.00;99.90
54642;DHT22;40536;53.194;5.728;2022-12-11T15:58:19;1.00;99.90
54642;DHT22;40536;53.194;5.728;2022-12-11T16:00:45;2.00;99.90
54642;DHT22;40536;53.194;5.728;2022-12-11T16:03:12;0.70;99.90
54642;DHT22;40536;53.194;5.728;2022-12-11T16:05:39;0.90;99.90
54642;DHT22;40536;53.194;5.728;2022-12-11T16:08:05;1.00;99.90
54642;DHT22;40536;53.194;5.728;2022-12-11T16:10:31;0.90;99.90
54642;DHT22;40536;53.194;5.728;2022-12-11T16:12:56;0.90;99.90
54642;DHT22;40536;53.194;5.728;2022-12-11T16:15:24;0.80;99.90
54642;DHT22;40536;53.194;5.728;2022-12-11T16:18:08;0.90;99.90
54642;DHT22;40536;53.194;5.728;2022-12-11T16:20:35;0.80;99.90
54642;DHT22;40536;53.194;5.728;2022-12-11T16:23:01;0.90;99.90
54642;DHT22;40536;53.194;5.728;2022-12-11T16:25:27;0.90;99.90
54642;DHT22;40536;53.194;5.728;2022-12-11T16:27:57;0.80;99.90
54642;DHT22;40536;53.194;5.728;2022-12-11T16:30:23;2.20;99.90
54642;DHT22;40536;53.194;5.728;2022-12-11T16:32:50;0.90;99.90
54642;DHT22;40536;53.194;5.728;2022-12-11T16:35:17;0.90;99.90
54642;DHT22;40536;53.194;5.728;2022-12-11T16:37:43;2.40;99.90
54642;DHT22;40536;53.194;5.728;2022-12-11T16:40:09;0.80;99.90
54642;DHT22;40536;53.194;5.728;2022-12-11T16:42:36;0.90;99.90
54642;DHT22;40536;53.194;5.728;2022-12-11T16:45:05;0.80;99.90
54642;DHT22;40536;53.194;5.728;2022-12-11T16:47:31;0.90;99.90
54642;DHT22;40536;53.194;5.728;2022-12-11T16:49:58;0.80;99.90
54642;DHT22;40536;53.194;5.728;2022-12-11T16:52:23;0.80;99.90
54642;DHT22;40536;53.194;5.728;2022-12-11T16:54:49;0.80;99.90
54642;DHT22;40536;53.194;5.728;2022-12-11T16:57:15;0.80;99.90
54642;DHT22;40536;53.194;5.728;2022-12-11T16:59:41;0.80;99.90
54642;DHT22;40536;53.194;5.728;2022-12-11T17:02:09;0.70;99.90
54642;DHT22;40536;53.194;5.728;2022-12-11T17:04:36;0.70;99.90
54642;DHT22;40536;53.194;5.728;2022-12-11T17:07:03;0.80;99.90
54642;DHT22;40536;53.194;5.728;2022-12-11T17:09:28;0.70;99.90
54642;DHT22;40536;53.194;5.728;2022-12-11T17:11:54;0.70;99.90
54642;DHT22;40536;53.194;5.728;2022-12-11T17:14:20;1.80;99.90
54642;DHT22;40536;53.194;5.728;2022-12-11T17:16:46;0.70;99.90
54642;DHT22;40536;53.194;5.728;2022-12-11T17:19:12;0.80;99.90
54642;DHT22;40536;53.194;5.728;2022-12-11T17:21:38;0.70;99.90
54642;DHT22;40536;53.194;5.728;2022-12-11T17:24:05;2.60;99.90